sensor_id;sensor_type;location;lat;lon;timestamp;temperature;humidity
37322;DHT22;23697;48.684;9.032;2022-07-22T00:01:00;18.40;79.50
37322;DHT22;23697;48.684;9.032;2022-07-22T00:03:27;18.30;79.50
37322;DHT22;23697;48.684;9.032;2022-07-22T00:05:54;18.30;79.50
37322;DHT22;23697;48.684;9.032;2022-07-22T00:08:20;18.20;79.50
37322;DHT22;23697;48.684;9.032;2022-07-22T00:10:48;18.20;79.30
37322;DHT22;23697;48.684;9.032;2022-07-22T00:13:14;18.20;79.30
37322;DHT22;23697;48.684;9.032;2022-07-22T00:15:41;18.20;79.70
37322;DHT22;23697;48.684;9.032;2022-07-22T00:18:09;18.20;79.80
37322;DHT22;23697;48.684;9.032;2022-07-22T00:20:36;18.10;80.00
37322;DHT22;23697;48.684;9.032;2022-07-22T00:23:03;18.10;80.30
37322;DHT22;23697;48.684;9.032;2022-07-22T00:25:30;18.10;80.20
37322;DHT22;23697;48.684;9.032;2022-07-22T00:27:57;18.10;80.30
37322;DHT22;23697;48.684;9.032;2022-07-22T00:30:24;18.10;80.40
37322;DHT22;23697;48.684;9.032;2022-07-22T00:32:51;18.00;80.40
37322;DHT22;23697;48.684;9.032;2022-07-22T00:35:19;17.90;80.50
37322;DHT22;23697;48.684;9.032;2022-07-22T00:37:46;17.90;80.40
37322;DHT22;23697;48.684;9.032;2022-07-22T00:40:13;17.90;80.30
37322;DHT22;23697;48.684;9.032;2022-07-22T00:42:40;17.90;80.40
37322;DHT22;23697;48.684;9.032;2022-07-22T00:45:07;17.90;80.30
37322;DHT22;23697;48.684;9.032;2022-07-22T00:47:34;18.00;80.30
37322;DHT22;23697;48.684;9.032;2022-07-22T00:50:02;17.90;80.60
37322;DHT22;23697;48.684;9.032;2022-07-22T00:52:30;17.80;80.80
37322;DHT22;23697;48.684;9.032;2022-07-22T00:54:58;17.70;80.80
37322;DHT22;23697;48.684;9.032;2022-07-22T00:57:25;17.80;81.00
37322;DHT22;23697;48.684;9.032;2022-07-22T00:59:52;17.80;80.80
37322;DHT22;23697;48.684;9.032;2022-07-22T01:02:19;17.80;80.90
37322;DHT22;23697;48.684;9.032;2022-07-22T01:04:46;17.80;81.10
37322;DHT22;23697;48.684;9.032;2022-07-22T01:07:13;17.70;81.10
37322;DHT22;23697;48.684;9.032;2022-07-22T01:09:43;17.70;81.40
37322;DHT22;23697;48.684;9.032;2022-07-22T01:12:11;17.60;81.40
37322;DHT22;23697;48.684;9.032;2022-07-22T01:14:38;17.60;81.70
37322;DHT22;23697;48.684;9.032;2022-07-22T01:17:05;17.60;81.90
37322;DHT22;23697;48.684;9.032;2022-07-22T01:19:32;17.60;82.00
37322;DHT22;23697;48.684;9.032;2022-07-22T01:22:02;17.60;81.90
37322;DHT22;23697;48.684;9.032;2022-07-22T01:24:29;17.60;82.00
37322;DHT22;23697;48.684;9.032;2022-07-22T01:26:56;17.50;82.10
37322;DHT22;23697;48.684;9.032;2022-07-22T01:29:23;17.40;82.30
37322;DHT22;23697;48.684;9.032;2022-07-22T01:31:49;17.40;82.50
37322;DHT22;23697;48.684;9.032;2022-07-22T01:34:16;17.40;82.50
37322;DHT22;23697;48.684;9.032;2022-07-22T01:36:43;17.40;82.70
37322;DHT22;23697;48.684;9.032;2022-07-22T01:39:11;17.40;82.70
37322;DHT22;23697;48.684;9.032;2022-07-22T01:41:39;17.40;82.60
37322;DHT22;23697;48.684;9.032;2022-07-22T01:44:06;17.40;82.60
37322;DHT22;23697;48.684;9.032;2022-07-22T01:46:33;17.40;82.60
37322;DHT22;23697;48.684;9.032;2022-07-22T01:49:00;17.50;82.60
37322;DHT22;23697;48.684;9.032;2022-07-22T01:51:27;17.50;82.50
37322;DHT22;23697;48.684;9.032;2022-07-22T01:53:54;17.40;82.50
37322;DHT22;23697;48.684;9.032;2022-07-22T01:56:22;17.30;82.60
37322;DHT22;23697;48.684;9.032;2022-07-22T01:58:49;17.20;82.90
37322;DHT22;23697;48.684;9.032;2022-07-22T02:01:16;17.20;83.10
37322;DHT22;23697;48.684;9.032;2022-07-22T02:03:43;17.20;83.20
37322;DHT22;23697;48.684;9.032;2022-07-22T02:06:10;17.10;83.10
37322;DHT22;23697;48.684;9.032;2022-07-22T02:08:37;17.10;83.10
37322;DHT22;23697;48.684;9.032;2022-07-22T02:11:05;17.10;83.30
37322;DHT22;23697;48.684;9.032;2022-07-22T02:13:33;17.10;83.40
37322;DHT22;23697;48.684;9.032;2022-07-22T02:16:00;17.10;83.50
37322;DHT22;23697;48.684;9.032;2022-07-22T02:18:28;17.10;83.50
37322;DHT22;23697;48.684;9.032;2022-07-22T02:20:55;17.10;83.40
37322;DHT22;23697;48.684;9.032;2022-07-22T02:23:21;17.10;83.40
37322;DHT22;23697;48.684;9.032;2022-07-22T02:25:48;17.10;83.50
37322;DHT22;23697;48.684;9.032;2022-07-22T02:28:15;17.10;83.40
37322;DHT22;23697;48.684;9.032;2022-07-22T02:30:43;17.00;83.40
37322;DHT22;23697;48.684;9.032;2022-07-22T02:33:10;17.00;83.70
37322;DHT22;23697;48.684;9.032;2022-07-22T02:35:37;16.90;83.90
37322;DHT22;23697;48.684;9.032;2022-07-22T02:38:04;16.90;84.10
37322;DHT22;23697;48.684;9.032;2022-07-22T02:40:31;16.90;84.10
37322;DHT22;23697;48.684;9.032;2022-07-22T02:42:58;16.90;84.20
37322;DHT22;23697;48.684;9.032;2022-07-22T02:45:25;16.80;84.10
37322;DHT22;23697;48.684;9.032;2022-07-22T02:47:55;16.80;84.20
37322;DHT22;23697;48.684;9.032;2022-07-22T02:50:22;16.70;84.50
37322;DHT22;23697;48.684;9.032;2022-07-22T02:52:50;16.70;84.60
37322;DHT22;23697;48.684;9.032;2022-07-22T02:55:17;16.70;84.50
37322;DHT22;23697;48.684;9.032;2022-07-22T02:57:44;16.70;84.40
37322;DHT22;23697;48.684;9.032;2022-07-22T03:00:12;16.80;84.40
37322;DHT22;23697;48.684;9.032;2022-07-22T03:02:39;16.80;84.40
37322;DHT22;23697;48.684;9.032;2022-07-22T03:05:09;16.70;84.30
37322;DHT22;23697;48.684;9.032;2022-07-22T03:07:36;16.80;84.20
37322;DHT22;23697;48.684;9.032;2022-07-22T03:10:04;16.70;84.40
37322;DHT22;23697;48.684;9.032;2022-07-22T03:12:31;16.60;84.70
37322;DHT22;23697;48.684;9.032;2022-07-22T03:14:58;16.60;84.50
37322;DHT22;23697;48.684;9.032;2022-07-22T03:17:25;16.60;84.50
37322;DHT22;23697;48.684;9.032;2022-07-22T03:19:52;16.60;84.50
37322;DHT22;23697;48.684;9.032;2022-07-22T03:22:22;16.60;84.60
37322;DHT22;23697;48.684;9.032;2022-07-22T03:24:49;16.60;84.70
37322;DHT22;23697;48.684;9.032;2022-07-22T03:27:16;16.60;84.60
37322;DHT22;23697;48.684;9.032;2022-07-22T03:29:43;16.50;84.60
37322;DHT22;23697;48.684;9.032;2022-07-22T03:32:10;16.50;84.50
37322;DHT22;23697;48.684;9.032;2022-07-22T03:34:37;16.50;84.60
37322;DHT22;23697;48.684;9.032;2022-07-22T03:37:03;16.50;84.80
37322;DHT22;23697;48.684;9.032;2022-07-22T03:39:32;16.40;84.90
37322;DHT22;23697;48.684;9.032;2022-07-22T03:41:59;16.40;85.00
37322;DHT22;23697;48.684;9.032;2022-07-22T03:44:26;16.40;84.90
37322;DHT22;23697;48.684;9.032;2022-07-22T03:46:53;16.40;84.90
37322;DHT22;23697;48.684;9.032;2022-07-22T03:49:19;16.40;84.80
37322;DHT22;23697;48.684;9.032;2022-07-22T03:51:47;16.40;84.80
37322;DHT22;23697;48.684;9.032;2022-07-22T03:54:14;16.40;84.80
37322;DHT22;23697;48.684;9.032;2022-07-22T03:56:42;16.40;84.70
37322;DHT22;23697;48.684;9.032;2022-07-22T03:59:09;16.40;84.80
37322;DHT22;23697;48.684;9.032;2022-07-22T04:01:36;16.40;84.80
37322;DHT22;23697;48.684;9.032;2022-07-22T04:04:03;16.40;84.90
37322;DHT22;23697;48.684;9.032;2022-07-22T04:06:30;16.40;84.80
37322;DHT22;23697;48.684;9.032;2022-07-22T04:08:58;16.30;85.10
37322;DHT22;23697;48.684;9.032;2022-07-22T04:11:25;16.30;85.10
37322;DHT22;23697;48.684;9.032;2022-07-22T04:13:53;16.30;85.20
37322;DHT22;23697;48.684;9.032;2022-07-22T04:16:20;16.30;85.30
37322;DHT22;23697;48.684;9.032;2022-07-22T04:18:47;16.30;85.30
37322;DHT22;23697;48.684;9.032;2022-07-22T04:21:14;16.20;85.60
37322;DHT22;23697;48.684;9.032;2022-07-22T04:23:41;16.30;85.70
37322;DHT22;23697;48.684;9.032;2022-07-22T04:26:08;16.30;85.60
37322;DHT22;23697;48.684;9.032;2022-07-22T04:28:35;16.20;85.90
37322;DHT22;23697;48.684;9.032;2022-07-22T04:31:03;16.30;85.80
37322;DHT22;23697;48.684;9.032;2022-07-22T04:33:30;16.30;85.60
37322;DHT22;23697;48.684;9.032;2022-07-22T04:35:57;16.30;85.60
37322;DHT22;23697;48.684;9.032;2022-07-22T04:38:24;16.40;85.50
37322;DHT22;23697;48.684;9.032;2022-07-22T04:40:51;16.40;85.50
37322;DHT22;23697;48.684;9.032;2022-07-22T04:43:18;16.40;85.50
37322;DHT22;23697;48.684;9.032;2022-07-22T04:45:45;16.40;85.40
37322;DHT22;23697;48.684;9.032;2022-07-22T04:48:14;16.40;85.50
37322;DHT22;23697;48.684;9.032;2022-07-22T04:50:40;16.40;85.40
37322;DHT22;23697;48.684;9.032;2022-07-22T04:53:08;16.50;85.20
37322;DHT22;23697;48.684;9.032;2022-07-22T04:55:35;16.50;85.10
37322;DHT22;23697;48.684;9.032;2022-07-22T04:58:02;16.60;84.90
37322;DHT22;23697;48.684;9.032;2022-07-22T05:00:29;16.60;84.90
37322;DHT22;23697;48.684;9.032;2022-07-22T05:02:56;16.70;85.00
37322;DHT22;23697;48.684;9.032;2022-07-22T05:05:25;16.70;85.00
37322;DHT22;23697;48.684;9.032;2022-07-22T05:07:54;16.80;84.80
37322;DHT22;23697;48.684;9.032;2022-07-22T05:10:24;16.80;84.70
37322;DHT22;23697;48.684;9.032;2022-07-22T05:12:51;16.80;84.60
37322;DHT22;23697;48.684;9.032;2022-07-22T05:15:18;16.90;84.60
37322;DHT22;23697;48.684;9.032;2022-07-22T05:17:45;16.90;84.60
37322;DHT22;23697;48.684;9.032;2022-07-22T05:20:16;17.00;84.50
37322;DHT22;23697;48.684;9.032;2022-07-22T05:23:01;17.10;84.60
37322;DHT22;23697;48.684;9.032;2022-07-22T05:25:28;17.10;84.40
37322;DHT22;23697;48.684;9.032;2022-07-22T05:27:56;17.10;84.20
37322;DHT22;23697;48.684;9.032;2022-07-22T05:30:24;17.20;84.30
37322;DHT22;23697;48.684;9.032;2022-07-22T05:32:52;17.30;84.20
37322;DHT22;23697;48.684;9.032;2022-07-22T05:35:19;17.40;84.10
37322;DHT22;23697;48.684;9.032;2022-07-22T05:37:47;17.50;84.00
37322;DHT22;23697;48.684;9.032;2022-07-22T05:40:15;17.60;83.80
37322;DHT22;23697;48.684;9.032;2022-07-22T05:42:42;17.60;83.70
37322;DHT22;23697;48.684;9.032;2022-07-22T05:45:09;17.60;83.70
37322;DHT22;23697;48.684;9.032;2022-07-22T05:47:36;17.70;83.70
37322;DHT22;23697;48.684;9.032;2022-07-22T05:50:03;17.80;83.50
37322;DHT22;23697;48.684;9.032;2022-07-22T05:52:30;17.90;83.20
37322;DHT22;23697;48.684;9.032;2022-07-22T05:54:59;17.90;83.20
37322;DHT22;23697;48.684;9.032;2022-07-22T05:57:27;18.00;83.30
37322;DHT22;23697;48.684;9.032;2022-07-22T05:59:54;18.10;83.00
37322;DHT22;23697;48.684;9.032;2022-07-22T06:02:21;18.10;83.00
37322;DHT22;23697;48.684;9.032;2022-07-22T06:04:48;18.20;82.40
37322;DHT22;23697;48.684;9.032;2022-07-22T06:07:15;18.30;82.40
37322;DHT22;23697;48.684;9.032;2022-07-22T06:09:42;18.40;82.30
37322;DHT22;23697;48.684;9.032;2022-07-22T06:12:10;18.50;82.00
37322;DHT22;23697;48.684;9.032;2022-07-22T06:14:38;18.60;81.60
37322;DHT22;23697;48.684;9.032;2022-07-22T06:17:05;18.70;81.30
37322;DHT22;23697;48.684;9.032;2022-07-22T06:19:31;18.80;81.30
37322;DHT22;23697;48.684;9.032;2022-07-22T06:21:58;18.90;80.80
37322;DHT22;23697;48.684;9.032;2022-07-22T06:24:25;19.00;80.30
37322;DHT22;23697;48.684;9.032;2022-07-22T06:26:52;19.10;80.10
37322;DHT22;23697;48.684;9.032;2022-07-22T06:29:19;19.20;79.60
37322;DHT22;23697;48.684;9.032;2022-07-22T06:31:47;19.40;79.60
37322;DHT22;23697;48.684;9.032;2022-07-22T06:34:14;19.40;79.20
37322;DHT22;23697;48.684;9.032;2022-07-22T06:36:41;19.60;79.10
37322;DHT22;23697;48.684;9.032;2022-07-22T06:39:08;19.70;78.70
37322;DHT22;23697;48.684;9.032;2022-07-22T06:41:35;19.80;78.40
37322;DHT22;23697;48.684;9.032;2022-07-22T06:44:03;19.90;77.70
37322;DHT22;23697;48.684;9.032;2022-07-22T06:46:30;20.00;77.80
37322;DHT22;23697;48.684;9.032;2022-07-22T06:48:58;20.20;77.20
37322;DHT22;23697;48.684;9.032;2022-07-22T06:51:25;20.30;76.50
37322;DHT22;23697;48.684;9.032;2022-07-22T06:53:51;20.50;75.90
37322;DHT22;23697;48.684;9.032;2022-07-22T06:56:18;20.60;75.80
37322;DHT22;23697;48.684;9.032;2022-07-22T06:58:45;20.70;75.50
37322;DHT22;23697;48.684;9.032;2022-07-22T07:01:12;20.80;73.10
37322;DHT22;23697;48.684;9.032;2022-07-22T07:03:39;21.00;74.20
37322;DHT22;23697;48.684;9.032;2022-07-22T07:06:09;21.10;75.00
37322;DHT22;23697;48.684;9.032;2022-07-22T07:08:36;21.40;73.50
37322;DHT22;23697;48.684;9.032;2022-07-22T07:11:04;21.60;73.60
37322;DHT22;23697;48.684;9.032;2022-07-22T07:13:31;21.70;73.20
37322;DHT22;23697;48.684;9.032;2022-07-22T07:15:58;21.80;71.40
37322;DHT22;23697;48.684;9.032;2022-07-22T07:18:25;22.10;71.60
37322;DHT22;23697;48.684;9.032;2022-07-22T07:20:52;22.20;70.30
37322;DHT22;23697;48.684;9.032;2022-07-22T07:23:20;22.20;69.10
37322;DHT22;23697;48.684;9.032;2022-07-22T07:25:47;22.20;68.50
37322;DHT22;23697;48.684;9.032;2022-07-22T07:28:14;22.30;70.40
37322;DHT22;23697;48.684;9.032;2022-07-22T07:30:41;22.40;69.30
37322;DHT22;23697;48.684;9.032;2022-07-22T07:33:08;22.60;69.70
37322;DHT22;23697;48.684;9.032;2022-07-22T07:35:35;22.80;68.50
37322;DHT22;23697;48.684;9.032;2022-07-22T07:38:02;22.70;66.70
37322;DHT22;23697;48.684;9.032;2022-07-22T07:40:31;22.70;67.70
37322;DHT22;23697;48.684;9.032;2022-07-22T07:42:58;22.90;68.90
37322;DHT22;23697;48.684;9.032;2022-07-22T07:45:25;23.00;68.20
37322;DHT22;23697;48.684;9.032;2022-07-22T07:47:52;23.20;68.30
37322;DHT22;23697;48.684;9.032;2022-07-22T07:50:19;23.40;68.40
37322;DHT22;23697;48.684;9.032;2022-07-22T07:52:46;23.60;66.50
37322;DHT22;23697;48.684;9.032;2022-07-22T07:55:13;23.70;66.20
37322;DHT22;23697;48.684;9.032;2022-07-22T07:57:42;23.80;65.70
37322;DHT22;23697;48.684;9.032;2022-07-22T08:00:10;24.00;65.00
37322;DHT22;23697;48.684;9.032;2022-07-22T08:02:37;24.10;65.80
37322;DHT22;23697;48.684;9.032;2022-07-22T08:05:05;24.20;64.70
37322;DHT22;23697;48.684;9.032;2022-07-22T08:07:32;24.30;66.00
37322;DHT22;23697;48.684;9.032;2022-07-22T08:09:59;24.50;65.80
37322;DHT22;23697;48.684;9.032;2022-07-22T08:12:26;24.70;64.40
37322;DHT22;23697;48.684;9.032;2022-07-22T08:14:55;24.80;62.00
37322;DHT22;23697;48.684;9.032;2022-07-22T08:17:21;25.00;63.00
37322;DHT22;23697;48.684;9.032;2022-07-22T08:19:48;25.20;63.70
37322;DHT22;23697;48.684;9.032;2022-07-22T08:22:15;25.30;61.60
37322;DHT22;23697;48.684;9.032;2022-07-22T08:24:42;25.50;60.70
37322;DHT22;23697;48.684;9.032;2022-07-22T08:27:09;25.60;60.90
37322;DHT22;23697;48.684;9.032;2022-07-22T08:29:36;25.70;61.60
37322;DHT22;23697;48.684;9.032;2022-07-22T08:32:05;25.80;57.60
37322;DHT22;23697;48.684;9.032;2022-07-22T08:34:32;25.60;56.90
37322;DHT22;23697;48.684;9.032;2022-07-22T08:36:59;25.60;58.20
37322;DHT22;23697;48.684;9.032;2022-07-22T08:39:28;25.70;58.80
37322;DHT22;23697;48.684;9.032;2022-07-22T08:41:56;25.90;57.30
37322;DHT22;23697;48.684;9.032;2022-07-22T08:44:23;25.90;56.50
37322;DHT22;23697;48.684;9.032;2022-07-22T08:46:50;25.90;56.50
37322;DHT22;23697;48.684;9.032;2022-07-22T08:49:18;25.90;55.60
37322;DHT22;23697;48.684;9.032;2022-07-22T08:51:45;25.90;55.70
37322;DHT22;23697;48.684;9.032;2022-07-22T08:54:12;26.10;54.50
37322;DHT22;23697;48.684;9.032;2022-07-22T08:56:39;25.90;54.80
37322;DHT22;23697;48.684;9.032;2022-07-22T08:59:08;25.90;56.70
37322;DHT22;23697;48.684;9.032;2022-07-22T09:01:35;26.10;58.00
37322;DHT22;23697;48.684;9.032;2022-07-22T09:04:03;26.30;55.70
37322;DHT22;23697;48.684;9.032;2022-07-22T09:06:31;26.40;56.60
37322;DHT22;23697;48.684;9.032;2022-07-22T09:09:01;26.60;55.70
37322;DHT22;23697;48.684;9.032;2022-07-22T09:11:29;26.70;53.10
37322;DHT22;23697;48.684;9.032;2022-07-22T09:13:58;26.90;56.90
37322;DHT22;23697;48.684;9.032;2022-07-22T09:16:38;27.10;54.60
37322;DHT22;23697;48.684;9.032;2022-07-22T09:19:05;27.10;53.20
37322;DHT22;23697;48.684;9.032;2022-07-22T09:21:35;27.20;53.20
37322;DHT22;23697;48.684;9.032;2022-07-22T09:24:03;27.50;52.60
37322;DHT22;23697;48.684;9.032;2022-07-22T09:26:31;27.40;50.60
37322;DHT22;23697;48.684;9.032;2022-07-22T09:28:59;27.10;50.30
37322;DHT22;23697;48.684;9.032;2022-07-22T09:31:26;27.30;50.60
37322;DHT22;23697;48.684;9.032;2022-07-22T09:33:56;27.50;52.20
37322;DHT22;23697;48.684;9.032;2022-07-22T09:36:23;27.60;51.80
37322;DHT22;23697;48.684;9.032;2022-07-22T09:38:51;27.70;50.70
37322;DHT22;23697;48.684;9.032;2022-07-22T09:41:18;27.90;51.90
37322;DHT22;23697;48.684;9.032;2022-07-22T09:43:46;28.10;52.80
37322;DHT22;23697;48.684;9.032;2022-07-22T09:46:13;28.40;50.30
37322;DHT22;23697;48.684;9.032;2022-07-22T09:48:40;28.50;49.30
37322;DHT22;23697;48.684;9.032;2022-07-22T09:51:08;28.60;50.00
37322;DHT22;23697;48.684;9.032;2022-07-22T09:53:35;28.80;48.40
37322;DHT22;23697;48.684;9.032;2022-07-22T09:56:05;28.90;46.50
37322;DHT22;23697;48.684;9.032;2022-07-22T09:58:32;28.90;48.70
37322;DHT22;23697;48.684;9.032;2022-07-22T10:01:03;28.80;46.20
37322;DHT22;23697;48.684;9.032;2022-07-22T10:03:32;28.50;47.40
37322;DHT22;23697;48.684;9.032;2022-07-22T10:06:00;28.50;50.50
37322;DHT22;23697;48.684;9.032;2022-07-22T10:08:30;28.60;50.80
37322;DHT22;23697;48.684;9.032;2022-07-22T10:10:59;29.00;49.50
37322;DHT22;23697;48.684;9.032;2022-07-22T10:13:27;29.10;47.30
37322;DHT22;23697;48.684;9.032;2022-07-22T10:15:56;28.90;47.40
37322;DHT22;23697;48.684;9.032;2022-07-22T10:18:24;28.90;47.00
37322;DHT22;23697;48.684;9.032;2022-07-22T10:21:01;29.10;48.80
37322;DHT22;23697;48.684;9.032;2022-07-22T10:23:29;29.10;47.10
37322;DHT22;23697;48.684;9.032;2022-07-22T10:25:57;29.10;47.30
37322;DHT22;23697;48.684;9.032;2022-07-22T10:28:26;29.30;48.40
37322;DHT22;23697;48.684;9.032;2022-07-22T10:31:18;29.40;47.70
37322;DHT22;23697;48.684;9.032;2022-07-22T10:33:54;29.60;48.00
37322;DHT22;23697;48.684;9.032;2022-07-22T10:36:32;29.70;47.70
37322;DHT22;23697;48.684;9.032;2022-07-22T10:39:08;29.90;46.30
37322;DHT22;23697;48.684;9.032;2022-07-22T10:41:37;30.00;45.80
37322;DHT22;23697;48.684;9.032;2022-07-22T10:44:04;29.80;46.80
37322;DHT22;23697;48.684;9.032;2022-07-22T10:46:48;29.90;46.00
37322;DHT22;23697;48.684;9.032;2022-07-22T10:49:16;30.00;45.70
37322;DHT22;23697;48.684;9.032;2022-07-22T10:52:10;30.10;45.90
37322;DHT22;23697;48.684;9.032;2022-07-22T10:57:48;30.20;46.50
37322;DHT22;23697;48.684;9.032;2022-07-22T11:00:15;30.30;44.40
37322;DHT22;23697;48.684;9.032;2022-07-22T11:02:43;30.20;44.30
37322;DHT22;23697;48.684;9.032;2022-07-22T11:05:11;30.20;45.90
37322;DHT22;23697;48.684;9.032;2022-07-22T11:07:41;30.30;43.30
37322;DHT22;23697;48.684;9.032;2022-07-22T11:10:09;30.50;45.10
37322;DHT22;23697;48.684;9.032;2022-07-22T11:12:39;30.50;44.70
37322;DHT22;23697;48.684;9.032;2022-07-22T11:15:08;30.50;44.00
37322;DHT22;23697;48.684;9.032;2022-07-22T11:17:35;30.70;45.10
37322;DHT22;23697;48.684;9.032;2022-07-22T11:20:06;30.90;44.30
37322;DHT22;23697;48.684;9.032;2022-07-22T11:22:35;30.90;42.40
37322;DHT22;23697;48.684;9.032;2022-07-22T11:25:06;30.90;43.00
37322;DHT22;23697;48.684;9.032;2022-07-22T11:27:33;30.60;42.10
37322;DHT22;23697;48.684;9.032;2022-07-22T11:30:01;30.60;45.30
37322;DHT22;23697;48.684;9.032;2022-07-22T11:32:30;30.70;41.60
37322;DHT22;23697;48.684;9.032;2022-07-22T11:35:01;30.80;42.80
37322;DHT22;23697;48.684;9.032;2022-07-22T11:37:29;30.90;43.50
37322;DHT22;23697;48.684;9.032;2022-07-22T11:39:59;30.90;41.20
37322;DHT22;23697;48.684;9.032;2022-07-22T11:42:27;31.10;43.20
37322;DHT22;23697;48.684;9.032;2022-07-22T11:44:54;31.00;41.20
37322;DHT22;23697;48.684;9.032;2022-07-22T11:47:21;31.10;40.20
37322;DHT22;23697;48.684;9.032;2022-07-22T11:49:48;31.30;42.60
37322;DHT22;23697;48.684;9.032;2022-07-22T11:52:15;31.10;42.00
37322;DHT22;23697;48.684;9.032;2022-07-22T11:54:45;31.10;43.10
37322;DHT22;23697;48.684;9.032;2022-07-22T11:57:16;31.30;42.20
37322;DHT22;23697;48.684;9.032;2022-07-22T11:59:43;31.50;41.10
37322;DHT22;23697;48.684;9.032;2022-07-22T12:02:10;31.30;39.30
37322;DHT22;23697;48.684;9.032;2022-07-22T12:04:39;31.00;41.20
37322;DHT22;23697;48.684;9.032;2022-07-22T12:07:06;31.00;39.80
37322;DHT22;23697;48.684;9.032;2022-07-22T12:09:36;30.90;40.80
37322;DHT22;23697;48.684;9.032;2022-07-22T12:12:05;31.00;40.80
37322;DHT22;23697;48.684;9.032;2022-07-22T12:14:33;31.10;41.80
37322;DHT22;23697;48.684;9.032;2022-07-22T12:17:05;31.20;41.00
37322;DHT22;23697;48.684;9.032;2022-07-22T12:19:34;31.30;41.40
37322;DHT22;23697;48.684;9.032;2022-07-22T12:22:03;31.50;41.00
37322;DHT22;23697;48.684;9.032;2022-07-22T12:24:32;31.60;39.40
37322;DHT22;23697;48.684;9.032;2022-07-22T12:27:01;31.50;40.50
37322;DHT22;23697;48.684;9.032;2022-07-22T12:29:42;31.10;40.40
37322;DHT22;23697;48.684;9.032;2022-07-22T12:32:11;31.10;41.00
37322;DHT22;23697;48.684;9.032;2022-07-22T12:34:42;31.10;41.00
37322;DHT22;23697;48.684;9.032;2022-07-22T12:37:18;31.40;43.20
37322;DHT22;23697;48.684;9.032;2022-07-22T12:39:54;31.80;42.70
37322;DHT22;23697;48.684;9.032;2022-07-22T12:42:21;31.90;41.30
37322;DHT22;23697;48.684;9.032;2022-07-22T12:44:54;31.80;40.60
37322;DHT22;23697;48.684;9.032;2022-07-22T12:47:43;31.60;40.00
37322;DHT22;23697;48.684;9.032;2022-07-22T12:50:26;31.50;41.30
37322;DHT22;23697;48.684;9.032;2022-07-22T12:52:54;31.80;42.50
37322;DHT22;23697;48.684;9.032;2022-07-22T12:55:21;32.00;40.20
37322;DHT22;23697;48.684;9.032;2022-07-22T12:57:48;32.10;40.40
37322;DHT22;23697;48.684;9.032;2022-07-22T13:00:18;32.20;40.00
37322;DHT22;23697;48.684;9.032;2022-07-22T13:02:45;32.20;40.30
37322;DHT22;23697;48.684;9.032;2022-07-22T13:05:12;32.40;38.60
37322;DHT22;23697;48.684;9.032;2022-07-22T13:07:39;32.60;40.20
37322;DHT22;23697;48.684;9.032;2022-07-22T13:10:07;32.70;39.40
37322;DHT22;23697;48.684;9.032;2022-07-22T13:12:34;32.70;39.20
37322;DHT22;23697;48.684;9.032;2022-07-22T13:15:01;32.70;38.20
37322;DHT22;23697;48.684;9.032;2022-07-22T13:17:30;32.90;39.20
37322;DHT22;23697;48.684;9.032;2022-07-22T13:19:57;33.10;38.80
37322;DHT22;23697;48.684;9.032;2022-07-22T13:22:24;33.10;38.40
37322;DHT22;23697;48.684;9.032;2022-07-22T13:24:51;32.90;36.40
37322;DHT22;23697;48.684;9.032;2022-07-22T13:27:18;32.60;37.10
37322;DHT22;23697;48.684;9.032;2022-07-22T13:29:45;32.40;39.20
37322;DHT22;23697;48.684;9.032;2022-07-22T13:32:12;32.50;38.50
37322;DHT22;23697;48.684;9.032;2022-07-22T13:34:40;32.30;37.90
37322;DHT22;23697;48.684;9.032;2022-07-22T13:37:07;32.40;38.80
37322;DHT22;23697;48.684;9.032;2022-07-22T13:39:34;32.50;39.30
37322;DHT22;23697;48.684;9.032;2022-07-22T13:42:01;32.70;39.10
37322;DHT22;23697;48.684;9.032;2022-07-22T13:44:28;32.80;38.70
37322;DHT22;23697;48.684;9.032;2022-07-22T13:46:56;32.90;38.50
37322;DHT22;23697;48.684;9.032;2022-07-22T13:49:23;33.00;39.00
37322;DHT22;23697;48.684;9.032;2022-07-22T13:51:52;32.80;38.40
37322;DHT22;23697;48.684;9.032;2022-07-22T13:54:19;32.80;38.60
37322;DHT22;23697;48.684;9.032;2022-07-22T13:56:47;32.90;37.90
37322;DHT22;23697;48.684;9.032;2022-07-22T13:59:14;32.60;37.70
37322;DHT22;23697;48.684;9.032;2022-07-22T14:01:41;32.60;38.00
37322;DHT22;23697;48.684;9.032;2022-07-22T14:04:08;32.70;38.30
37322;DHT22;23697;48.684;9.032;2022-07-22T14:06:35;32.90;38.40
37322;DHT22;23697;48.684;9.032;2022-07-22T14:09:05;33.10;38.70
37322;DHT22;23697;48.684;9.032;2022-07-22T14:11:32;33.30;38.20
37322;DHT22;23697;48.684;9.032;2022-07-22T14:13:58;33.60;37.90
37322;DHT22;23697;48.684;9.032;2022-07-22T14:16:28;33.60;38.10
37322;DHT22;23697;48.684;9.032;2022-07-22T14:19:03;33.60;37.20
37322;DHT22;23697;48.684;9.032;2022-07-22T14:21:30;33.40;35.20
37322;DHT22;23697;48.684;9.032;2022-07-22T14:23:57;33.20;37.90
37322;DHT22;23697;48.684;9.032;2022-07-22T14:26:26;33.30;36.30
37322;DHT22;23697;48.684;9.032;2022-07-22T14:28:53;33.30;36.30
37322;DHT22;23697;48.684;9.032;2022-07-22T14:31:20;33.40;36.10
37322;DHT22;23697;48.684;9.032;2022-07-22T14:34:24;33.40;37.30
37322;DHT22;23697;48.684;9.032;2022-07-22T14:37:04;33.40;35.90
37322;DHT22;23697;48.684;9.032;2022-07-22T14:39:31;33.10;36.50
37322;DHT22;23697;48.684;9.032;2022-07-22T14:41:59;32.90;37.40
37322;DHT22;23697;48.684;9.032;2022-07-22T14:44:26;32.80;37.90
37322;DHT22;23697;48.684;9.032;2022-07-22T14:46:53;32.60;36.60
37322;DHT22;23697;48.684;9.032;2022-07-22T14:49:23;32.70;38.20
37322;DHT22;23697;48.684;9.032;2022-07-22T14:51:56;32.70;35.80
37322;DHT22;23697;48.684;9.032;2022-07-22T14:54:23;32.80;38.70
37322;DHT22;23697;48.684;9.032;2022-07-22T14:56:50;33.00;38.00
37322;DHT22;23697;48.684;9.032;2022-07-22T14:59:18;33.10;36.80
37322;DHT22;23697;48.684;9.032;2022-07-22T15:01:47;33.10;36.50
37322;DHT22;23697;48.684;9.032;2022-07-22T15:04:14;33.10;37.00
37322;DHT22;23697;48.684;9.032;2022-07-22T15:06:41;33.10;36.80
37322;DHT22;23697;48.684;9.032;2022-07-22T15:09:08;33.10;37.30
37322;DHT22;23697;48.684;9.032;2022-07-22T15:11:35;33.10;38.80
37322;DHT22;23697;48.684;9.032;2022-07-22T15:14:02;33.10;37.10
37322;DHT22;23697;48.684;9.032;2022-07-22T15:16:30;33.00;38.60
37322;DHT22;23697;48.684;9.032;2022-07-22T15:18:57;33.00;38.00
37322;DHT22;23697;48.684;9.032;2022-07-22T15:21:24;33.00;37.50
37322;DHT22;23697;48.684;9.032;2022-07-22T15:23:51;32.90;35.50
37322;DHT22;23697;48.684;9.032;2022-07-22T15:26:18;32.60;36.10
37322;DHT22;23697;48.684;9.032;2022-07-22T15:28:45;32.60;39.90
37322;DHT22;23697;48.684;9.032;2022-07-22T15:31:13;32.50;37.70
37322;DHT22;23697;48.684;9.032;2022-07-22T15:33:41;32.50;39.20
37322;DHT22;23697;48.684;9.032;2022-07-22T15:36:09;32.60;38.00
37322;DHT22;23697;48.684;9.032;2022-07-22T15:38:36;32.70;38.30